Погода METAR - Абакан

Кемерово, Абакан, Красноярск, Новосибирск
Код METAR: UNAA 011700Z 26002MPS 5000 BR FU NSC M16/M17 Q1045 R02/CLRD65 NOSIG RMK QFE761

Погода - Сейчас

Время: 2020-12-02 00:00, местное
Направление ветра: Запад-юго-запад (260°)
Скорость ветра: 2 м/с
Видимость:
Температура: -16°C
Точка росы: -17°C
Атмосферное давление: 1045 гПа

Архив погоды

Время, местное Направление Скорость, м/с Температура, °C Точка росы, °C Давление, гПа
2020-12-02 00:00 ЗЮЗ (260°) 2 -16 -17 1045
2020-12-01 19:00 СЗ (300°) 1 -13 -15 1045
2020-11-30 21:00 Ю (190°) 2 -16 -18 1046
2020-11-30 14:30 ЮЗ (220°) 3 -10 -14 1045
2020-11-28 17:00 С (350°) 2 -8 -11 1038
2020-11-26 22:30 Штиль 0 -14 -16 1040
2020-11-23 10:00 С (350°) 4 -1 -4 1029
2020-11-22 16:00 В (80°) 2 2 -4 1029
2020-11-21 23:00 Ю (190°) 6 -2 -7 1033
2020-11-20 01:00 Ю (190°) 4 -8 -13 1037
2020-11-19 15:00 Ю (190°) 4 -8 -15 1035
2020-11-16 08:00 З (270°) 1 -9 -10 1025
2020-11-15 15:30 С (350°) 2 -2 -8 1027
2020-11-15 06:30 ЮЮВ (160°) 1 -7 -9 1028
2020-11-14 20:00 С (360°) 2 -7 -10 1026
2020-11-14 10:30 Штиль 0 -6 -10 1030
2020-11-13 07:00 ЮЗ (220°) 10 2 -8 1017
2020-11-10 08:30 ЮЮЗ (200°) 3 0 -2 1017
2020-11-08 12:00 Штиль 0 3 0 1020
2020-11-08 04:00 ЮЗ (230°) 1 -2 -3 1023
2020-11-07 12:00 Ю (170°) 4 5 3 1025
2020-11-06 12:30 ЮЗ (230°) 5 5 -3 1024
2020-11-04 13:30 ЮЗ (210°) 3 0 -8 1024
2020-11-01 19:00 ЮВ (140°) 3 2 -2 1027
2020-11-01 12:00 Ю (170°) 2 4 -2 1030
2020-10-29 17:30 ЗЮЗ (240°) 7 0 -12 1026
2020-10-29 11:00 ЮЗ (230°) 9 3 -8 1022
2020-10-26 18:00 Ю (190°) 5 6 0 1021
2020-10-23 23:00 СЗ (300°) 1 -2 -3 1017
2020-10-22 05:00 Ю (180°) 2 -3 -4 1010
2020-10-20 23:00 ЗЮЗ (240°) 3 6 -1 1020
2020-10-20 17:00 ЮЮВ (150°) 5 5 -2 1018
2020-10-18 00:30 Ю (180°) 4 11 0 1015
2020-10-16 19:30 Штиль 0 5 4 1026
2020-10-15 02:30 ВЮВ (110°) 1 2 -1 1026
2020-10-13 04:30 ЮЮЗ (200°) 4 5 2 1021
2020-10-12 12:00 ЮВ (140°) 2 4 1 1025
2020-10-09 12:00 ЗЮЗ (240°) 5 2 -11 1031
2020-10-09 07:00 З (270°) 4 -2 -6 1029
2020-10-07 20:00 Ю (190°) 3 4 -3 1020
2020-10-06 22:30 Ю (180°) 4 -2 -4 1023
2020-10-03 17:00 ЮЮВ (150°) 3 9 -2 1025
2020-10-01 05:30 СВ (40°) 2 2 0 1025
2020-09-28 20:00 С (360°) 3 6 4 1021
2020-09-27 09:30 ЗЮЗ (250°) 1 6 4 1029
2020-09-25 20:00 ЮЮЗ (200°) 2 8 2 1013
2020-09-24 17:30 ССВ (20°) 3 12 7 1002
2020-09-24 11:00 Штиль 0 8 5 1006